LiveATC.Net - Listen to live air traffic control over the Internet!


ICAO: VGHS  IATA: DAC   Airport: Hazrat Shahjalal International Airport
City: Dhaka
Country: Bangladesh   Continent: Asia
VGHS METAR Weather: VGHS 251200Z 33004KT 1800 DZ BKN010 OVC090 21/18 Q1013 TEMPO RA
VGHS Flight Activity (FlightAware)

VGHS Tower
Feed Status: DOWN
Last heard on: 2020-02-20 03:53:40 (5 days 9 hours 6 minutes ago)
FacilityFrequency
Bangladesh Tower118.300

NOTICE

Unauthorized use prohibited. See LiveATC.net Terms of Service


Airport/ARTCC Code
Frequency Search
(e.g., 124.400, 128.75)
Site-wide search
 


Browse Feeds
Top 50 Feeds
Coverage Map
Bad Weather Areas

LiveATC FAQ
Offer LiveATC feed
Contact LiveATC.net
Press Inquiries

LiveATC on iPhone
LiveATC on Android

Windows Phone
Windows 8/10

LiveATC Mobile
(Mobile browser)

ATC Audio Archives
Interesting Recordings

LiveATC Forums


Home Page
About LiveATC.net
Make a Donation
Terms of Use
Privacy Policy

Canadian Air Freqs

AIRMETs/SIGMETs

FAA Airport Status
Nat'l Airspace Status
Arrival Demand Charts


Server Software By:
Icecast.org
Liquidsoap